createdAt,value
2023-01-28T00:00:09.206Z,50.59
2023-01-28T00:02:10.517Z,51.39
2023-01-28T00:04:11.814Z,51.14
2023-01-28T00:06:13.102Z,51.12
2023-01-28T00:08:14.974Z,51.39
2023-01-28T00:10:16.270Z,51.50
2023-01-28T00:12:17.566Z,51.18
2023-01-28T00:14:18.901Z,51.15
2023-01-28T00:16:20.485Z,51.45
2023-01-28T00:18:21.834Z,51.49
2023-01-28T00:20:23.174Z,51.84
2023-01-28T00:22:24.470Z,52.00
2023-01-28T00:24:25.904Z,52.79
2023-01-28T00:26:27.420Z,52.44
2023-01-28T00:28:28.738Z,53.39
2023-01-28T00:30:30.031Z,51.92
2023-01-28T00:32:31.843Z,50.83
2023-01-28T00:34:33.138Z,52.44
2023-01-28T00:36:35.327Z,51.89
2023-01-28T00:38:36.700Z,52.00
2023-01-28T00:40:38.019Z,51.81
2023-01-28T00:42:39.322Z,51.91
2023-01-28T00:44:40.683Z,51.63
2023-01-28T00:46:42.077Z,51.80
2023-01-28T00:48:43.465Z,51.84
2023-01-28T00:50:45.634Z,51.97
2023-01-28T00:52:46.971Z,51.33
2023-01-28T00:54:48.313Z,51.55
2023-01-28T00:56:49.647Z,50.98
2023-01-28T00:58:50.999Z,51.29
2023-01-28T01:00:52.294Z,51.82
2023-01-28T01:02:53.634Z,51.69
2023-01-28T01:05:00.880Z,51.27
2023-01-28T01:07:02.191Z,51.53
2023-01-28T01:09:03.488Z,51.92
2023-01-28T01:11:04.846Z,51.56
2023-01-28T01:13:06.174Z,51.51
2023-01-28T01:15:10.295Z,51.15
2023-01-28T01:17:11.663Z,51.91
2023-01-28T01:19:12.994Z,51.71
2023-01-28T01:21:14.302Z,51.38
2023-01-28T01:23:15.598Z,51.35
2023-01-28T01:25:17.323Z,51.20
2023-01-28T01:27:18.792Z,51.47
2023-01-28T01:29:20.127Z,51.28
2023-01-28T01:31:21.523Z,51.51
2023-01-28T01:33:22.834Z,50.62
2023-01-28T01:35:24.125Z,51.04
2023-01-28T01:37:25.448Z,52.21
2023-01-28T01:39:26.755Z,52.07
2023-01-28T01:41:28.141Z,51.87
2023-01-28T01:43:29.434Z,51.74
2023-01-28T01:45:30.751Z,51.59
2023-01-28T01:47:32.106Z,51.41
2023-01-28T01:49:33.401Z,51.25
2023-01-28T01:51:34.738Z,46.59
2023-01-28T01:53:36.070Z,49.38
2023-01-28T01:55:38.210Z,49.40
2023-01-28T01:57:39.622Z,49.42
2023-01-28T01:59:40.933Z,49.64
2023-01-28T02:01:42.274Z,50.32
2023-01-28T02:03:43.645Z,50.28
2023-01-28T02:05:45.009Z,50.42
2023-01-28T02:07:46.355Z,50.13
2023-01-28T02:09:47.772Z,50.71
2023-01-28T02:11:49.067Z,50.40
2023-01-28T02:13:50.386Z,50.39
2023-01-28T02:15:51.682Z,50.48
2023-01-28T02:17:52.995Z,50.54
2023-01-28T02:19:54.356Z,50.85
2023-01-28T02:21:55.654Z,50.61
2023-01-28T02:23:57.009Z,51.13
2023-01-28T02:25:58.410Z,51.05
2023-01-28T02:27:59.781Z,51.23
2023-01-28T02:30:02.162Z,51.12
2023-01-28T02:32:03.621Z,50.88
2023-01-28T02:34:05.077Z,51.08
2023-01-28T02:36:06.367Z,51.41
2023-01-28T02:38:07.688Z,51.58
2023-01-28T02:40:09.043Z,51.50
2023-01-28T02:42:10.405Z,51.50
2023-01-28T02:44:11.735Z,51.30
2023-01-28T02:46:31.651Z,51.75
2023-01-28T02:48:33.010Z,51.56
2023-01-28T02:50:34.307Z,51.77
2023-01-28T02:52:54.493Z,51.83
2023-01-28T02:54:55.793Z,52.32
2023-01-28T02:56:57.095Z,52.35
2023-01-28T02:58:58.468Z,52.50
2023-01-28T03:00:59.847Z,52.94
2023-01-28T03:03:01.170Z,52.79
2023-01-28T03:05:02.475Z,53.12
2023-01-28T03:07:04.358Z,53.41
2023-01-28T03:09:24.565Z,53.75
2023-01-28T03:11:44.466Z,53.77
2023-01-28T03:14:04.225Z,53.87
2023-01-28T03:16:23.982Z,54.03
2023-01-28T03:18:43.847Z,53.87
2023-01-28T03:21:03.782Z,54.25
2023-01-28T03:23:23.609Z,54.06
2023-01-28T03:25:43.482Z,53.98
2023-01-28T03:28:03.315Z,54.08
2023-01-28T03:30:23.229Z,54.12
2023-01-28T03:32:43.076Z,54.16
2023-01-28T03:35:02.851Z,53.92
2023-01-28T03:37:04.178Z,53.21
2023-01-28T03:39:05.486Z,53.56
2023-01-28T03:41:06.846Z,53.13
2023-01-28T03:43:08.204Z,53.01
2023-01-28T03:45:09.529Z,52.66
2023-01-28T03:47:11.566Z,52.58
2023-01-28T03:49:12.946Z,52.80
2023-01-28T03:51:14.303Z,52.58
2023-01-28T03:53:16.934Z,52.51
2023-01-28T03:55:18.440Z,52.64
2023-01-28T03:57:19.779Z,52.46
2023-01-28T03:59:21.086Z,52.87
2023-01-28T04:01:22.460Z,52.58
2023-01-28T04:03:23.767Z,52.82
2023-01-28T04:05:25.910Z,52.70
2023-01-28T04:07:27.210Z,53.00
2023-01-28T04:09:28.555Z,53.86
2023-01-28T04:11:29.885Z,53.25
2023-01-28T04:13:31.190Z,53.41
2023-01-28T04:15:32.542Z,53.63
2023-01-28T04:17:33.986Z,54.12
2023-01-28T04:19:37.201Z,54.18
2023-01-28T04:21:38.595Z,54.15
2023-01-28T04:23:39.928Z,54.30
2023-01-28T04:25:41.295Z,54.68
2023-01-28T04:27:42.640Z,54.61
2023-01-28T04:29:43.983Z,54.80
2023-01-28T04:31:45.359Z,55.01
2023-01-28T04:33:46.714Z,54.93
2023-01-28T04:35:48.018Z,55.22
2023-01-28T04:37:49.403Z,55.35
2023-01-28T04:39:50.705Z,55.62
2023-01-28T04:41:52.050Z,55.80
2023-01-28T04:43:53.390Z,56.23
2023-01-28T04:45:54.733Z,56.09
2023-01-28T04:47:56.029Z,56.19
2023-01-28T04:49:57.338Z,55.90
2023-01-28T04:51:58.716Z,56.03
2023-01-28T04:54:00.033Z,55.88
2023-01-28T04:56:02.233Z,55.55
2023-01-28T04:58:03.537Z,55.33
2023-01-28T05:00:05.608Z,55.30
2023-01-28T05:02:07.097Z,54.69
2023-01-28T05:04:09.832Z,54.81
2023-01-28T05:06:11.159Z,54.51
2023-01-28T05:08:12.535Z,54.05
2023-01-28T05:10:13.849Z,54.22
2023-01-28T05:12:15.185Z,54.02
2023-01-28T05:14:16.540Z,54.42
2023-01-28T05:16:17.879Z,53.91
2023-01-28T05:18:19.222Z,54.29
2023-01-28T05:20:20.554Z,53.65
2023-01-28T05:22:22.169Z,53.95
2023-01-28T05:24:23.473Z,54.23
2023-01-28T05:26:24.854Z,54.86
2023-01-28T05:28:26.203Z,54.80
2023-01-28T05:30:27.566Z,54.54
2023-01-28T05:32:28.933Z,54.88
2023-01-28T05:34:30.334Z,55.30
2023-01-28T05:36:31.629Z,55.11
2023-01-28T05:38:32.959Z,55.40
2023-01-28T05:40:34.285Z,55.74
2023-01-28T05:42:35.599Z,55.70
2023-01-28T05:44:38.002Z,56.35
2023-01-28T05:46:45.332Z,56.72
2023-01-28T05:48:46.678Z,56.33
2023-01-28T05:50:48.128Z,56.36
2023-01-28T05:52:49.485Z,56.84
2023-01-28T05:54:50.828Z,57.07
2023-01-28T05:56:52.225Z,56.93
2023-01-28T05:58:53.520Z,57.36
2023-01-28T06:00:54.825Z,57.30
2023-01-28T06:02:56.162Z,57.28
2023-01-28T06:04:57.494Z,57.06
2023-01-28T06:06:58.863Z,57.09
2023-01-28T06:09:00.205Z,57.17
2023-01-28T06:11:01.509Z,56.99
2023-01-28T06:13:02.868Z,56.94
2023-01-28T06:15:04.197Z,56.71
2023-01-28T06:17:05.544Z,56.42
2023-01-28T06:19:07.074Z,56.21
2023-01-28T06:21:08.365Z,55.68
2023-01-28T06:23:09.664Z,55.67
2023-01-28T06:25:11.074Z,55.04
2023-01-28T06:27:12.402Z,55.12
2023-01-28T06:29:13.751Z,55.29
2023-01-28T06:31:15.097Z,54.89
2023-01-28T06:33:16.400Z,55.20
2023-01-28T06:35:17.737Z,54.76
2023-01-28T06:37:19.053Z,55.12
2023-01-28T06:39:21.707Z,54.93
2023-01-28T06:41:23.058Z,55.01
2023-01-28T06:43:27.733Z,54.88
2023-01-28T06:45:29.077Z,54.69
2023-01-28T06:47:30.425Z,54.68
2023-01-28T06:49:31.720Z,54.76
2023-01-28T06:51:33.072Z,55.09
2023-01-28T06:53:34.435Z,55.38
2023-01-28T06:55:35.786Z,55.52
2023-01-28T06:57:37.083Z,55.67
2023-01-28T06:59:38.405Z,55.95
2023-01-28T07:01:39.742Z,55.62
2023-01-28T07:03:41.047Z,56.05
2023-01-28T07:05:42.382Z,55.85
2023-01-28T07:07:43.893Z,56.18
2023-01-28T07:09:45.225Z,55.79
2023-01-28T07:11:46.567Z,56.21
2023-01-28T07:13:47.904Z,56.25
2023-01-28T07:15:49.788Z,56.17
2023-01-28T07:17:51.119Z,56.67
2023-01-28T07:19:52.473Z,56.62
2023-01-28T07:21:57.729Z,56.55
2023-01-28T07:23:59.162Z,57.01
2023-01-28T07:26:00.525Z,56.81
2023-01-28T07:28:02.189Z,57.01
2023-01-28T07:30:03.575Z,56.75
2023-01-28T07:32:07.209Z,56.93
2023-01-28T07:34:08.564Z,56.79
2023-01-28T07:36:09.900Z,56.62
2023-01-28T07:38:11.268Z,56.71
2023-01-28T07:40:13.005Z,56.29
2023-01-28T07:42:14.423Z,56.32
2023-01-28T07:44:15.761Z,55.57
2023-01-28T07:46:17.098Z,55.51
2023-01-28T07:48:18.673Z,55.38
2023-01-28T07:50:19.981Z,54.88
2023-01-28T07:52:21.327Z,55.13
2023-01-28T07:54:22.650Z,55.46
2023-01-28T07:56:23.968Z,55.23
2023-01-28T07:58:28.090Z,54.61
2023-01-28T08:00:29.441Z,54.66
2023-01-28T08:02:30.774Z,54.88
2023-01-28T08:04:32.167Z,54.63
2023-01-28T08:06:38.472Z,54.72
2023-01-28T08:08:39.783Z,54.52
2023-01-28T08:10:41.122Z,55.02
2023-01-28T08:12:42.415Z,54.58
2023-01-28T08:14:43.716Z,54.42
2023-01-28T08:16:45.089Z,54.63
2023-01-28T08:18:46.443Z,54.81
2023-01-28T08:20:47.976Z,54.20
2023-01-28T08:22:49.322Z,54.67
2023-01-28T08:24:50.695Z,54.97
2023-01-28T08:26:52.138Z,54.84
2023-01-28T08:28:53.427Z,55.16
2023-01-28T08:30:54.921Z,55.54
2023-01-28T08:32:57.077Z,55.37
2023-01-28T08:34:58.410Z,55.48
2023-01-28T08:36:59.736Z,55.54
2023-01-28T08:39:01.075Z,55.87
2023-01-28T08:41:02.429Z,55.80
2023-01-28T08:43:03.759Z,56.36
2023-01-28T08:45:05.078Z,56.29
2023-01-28T08:47:06.378Z,55.92
2023-01-28T08:49:07.709Z,55.60
2023-01-28T08:51:09.008Z,56.13
2023-01-28T08:53:10.352Z,55.91
2023-01-28T08:55:11.882Z,56.03
2023-01-28T08:57:13.195Z,56.33
2023-01-28T08:59:14.528Z,56.42
2023-01-28T09:01:15.851Z,56.29
2023-01-28T09:03:17.181Z,56.09
2023-01-28T09:05:18.671Z,55.52
2023-01-28T09:07:20.203Z,55.14
2023-01-28T09:09:21.503Z,55.27
2023-01-28T09:11:22.905Z,54.75
2023-01-28T09:13:24.262Z,54.31
2023-01-28T09:15:25.631Z,54.33
2023-01-28T09:17:26.924Z,54.20
2023-01-28T09:19:29.683Z,53.98
2023-01-28T09:21:30.989Z,53.45
2023-01-28T09:23:32.333Z,53.65
2023-01-28T09:25:34.129Z,53.36
2023-01-28T09:27:35.471Z,53.27
2023-01-28T09:29:37.942Z,53.32
2023-01-28T09:31:39.378Z,52.95
2023-01-28T09:33:40.712Z,52.84
2023-01-28T09:35:42.094Z,41.72
2023-01-28T09:37:43.385Z,40.50
2023-01-28T09:39:47.640Z,40.88
2023-01-28T09:41:49.597Z,39.66
2023-01-28T09:43:51.524Z,43.67
2023-01-28T09:45:52.864Z,41.82
2023-01-28T09:47:54.228Z,41.77
2023-01-28T09:49:57.126Z,41.65
2023-01-28T09:51:58.441Z,42.88
2023-01-28T09:53:59.799Z,43.30
2023-01-28T09:56:01.138Z,43.06
2023-01-28T09:58:02.457Z,43.58
2023-01-28T10:00:05.375Z,44.58
2023-01-28T10:02:06.719Z,43.87
2023-01-28T10:04:08.056Z,46.96
2023-01-28T10:06:12.415Z,46.81
2023-01-28T10:08:13.751Z,45.03
2023-01-28T10:10:15.914Z,45.81
2023-01-28T10:12:17.483Z,46.94
2023-01-28T10:14:18.812Z,45.73
2023-01-28T10:16:20.136Z,47.48
2023-01-28T10:18:21.447Z,46.41
2023-01-28T10:20:22.948Z,46.83
2023-01-28T10:22:24.463Z,47.15
2023-01-28T10:24:26.248Z,46.64
2023-01-28T10:26:27.747Z,47.07
2023-01-28T10:28:29.086Z,46.66
2023-01-28T10:30:30.636Z,47.31
2023-01-28T10:32:31.984Z,47.09
2023-01-28T10:34:33.278Z,47.23
2023-01-28T10:36:34.627Z,48.16
2023-01-28T10:38:35.950Z,48.38
2023-01-28T10:40:37.279Z,48.05
2023-01-28T10:42:38.614Z,48.41
2023-01-28T10:44:39.942Z,48.49
2023-01-28T10:46:41.271Z,48.49
2023-01-28T10:48:42.586Z,48.39
2023-01-28T10:50:43.909Z,49.13
2023-01-28T10:52:45.280Z,49.56
2023-01-28T10:54:46.674Z,49.84
2023-01-28T10:56:48.092Z,50.24
2023-01-28T10:58:49.494Z,49.57
2023-01-28T11:00:50.869Z,49.26
2023-01-28T11:02:52.204Z,48.69
2023-01-28T11:04:53.539Z,49.15
2023-01-28T11:06:54.844Z,49.41
2023-01-28T11:08:56.147Z,49.35
2023-01-28T11:10:57.442Z,50.78
2023-01-28T11:12:58.751Z,51.16
2023-01-28T11:15:00.085Z,51.18
2023-01-28T11:17:02.191Z,51.45
2023-01-28T11:19:04.239Z,51.24
2023-01-28T11:21:06.022Z,51.05
2023-01-28T11:23:07.331Z,51.31
2023-01-28T11:25:08.937Z,50.92
2023-01-28T11:27:10.246Z,50.68
2023-01-28T11:29:11.597Z,50.66
2023-01-28T11:31:12.929Z,50.57
2023-01-28T11:33:14.365Z,50.20
2023-01-28T11:35:15.669Z,50.04
2023-01-28T11:37:17.025Z,49.43
2023-01-28T11:39:18.329Z,49.20
2023-01-28T11:41:22.390Z,49.27
2023-01-28T11:43:23.787Z,48.91
2023-01-28T11:45:25.081Z,48.73
2023-01-28T11:47:27.632Z,48.69
2023-01-28T11:49:29.005Z,48.46
2023-01-28T11:51:30.478Z,48.41
2023-01-28T11:53:32.967Z,48.61
2023-01-28T11:55:34.362Z,48.36
2023-01-28T11:57:38.349Z,48.32
2023-01-28T11:59:40.693Z,48.42
2023-01-28T12:01:42.015Z,48.64
2023-01-28T12:03:43.350Z,48.34
2023-01-28T12:05:44.841Z,48.48
2023-01-28T12:07:46.203Z,48.56
2023-01-28T12:09:47.629Z,48.77
2023-01-28T12:12:07.346Z,48.91
2023-01-28T12:14:08.651Z,48.54
2023-01-28T12:16:10.177Z,48.80
2023-01-28T12:18:11.525Z,48.57
2023-01-28T12:20:13.296Z,49.03
2023-01-28T12:22:14.808Z,48.90
2023-01-28T12:24:16.147Z,49.06
2023-01-28T12:26:17.516Z,49.25
2023-01-28T12:28:18.819Z,49.32
2023-01-28T12:30:20.155Z,49.30
2023-01-28T12:32:21.446Z,49.12
2023-01-28T12:34:22.739Z,49.39
2023-01-28T12:36:24.094Z,49.65
2023-01-28T12:38:25.423Z,49.42
2023-01-28T12:40:27.010Z,49.59
2023-01-28T12:42:28.315Z,49.40
2023-01-28T12:44:29.629Z,49.33
2023-01-28T12:46:30.965Z,48.70
2023-01-28T12:48:32.261Z,48.48
2023-01-28T12:50:33.573Z,48.51
2023-01-28T12:52:34.910Z,48.39
2023-01-28T12:54:36.344Z,48.53
2023-01-28T12:56:37.688Z,48.19
2023-01-28T12:58:41.827Z,47.85
2023-01-28T13:00:43.149Z,47.99
2023-01-28T13:02:44.508Z,47.98
2023-01-28T13:04:45.880Z,48.02
2023-01-28T13:06:47.208Z,48.05
2023-01-28T13:08:48.502Z,47.76
2023-01-28T13:10:49.830Z,47.70
2023-01-28T13:12:51.162Z,48.14
2023-01-28T13:14:55.223Z,48.11
2023-01-28T13:16:56.542Z,47.82
2023-01-28T13:19:03.772Z,47.77
2023-01-28T13:21:06.130Z,48.17
2023-01-28T13:23:07.530Z,48.09
2023-01-28T13:25:08.862Z,48.16
2023-01-28T13:27:10.164Z,47.96
2023-01-28T13:29:11.445Z,47.78
2023-01-28T13:31:18.888Z,48.14
2023-01-28T13:33:20.219Z,48.26
2023-01-28T13:35:21.554Z,48.44
2023-01-28T13:37:22.843Z,48.09
2023-01-28T13:39:24.135Z,48.64
2023-01-28T13:41:25.482Z,48.84
2023-01-28T13:43:27.203Z,48.69
2023-01-28T13:45:28.558Z,48.83
2023-01-28T13:47:29.830Z,48.78
2023-01-28T13:49:31.159Z,48.91
2023-01-28T13:51:32.473Z,48.80
2023-01-28T13:53:33.762Z,49.00
2023-01-28T13:55:44.173Z,48.89
2023-01-28T13:57:46.635Z,49.30
2023-01-28T13:59:48.038Z,49.00
2023-01-28T14:01:49.340Z,49.55
2023-01-28T14:03:53.618Z,49.29
2023-01-28T14:05:54.956Z,49.42
2023-01-28T14:07:56.251Z,49.44
2023-01-28T14:09:57.627Z,49.57
2023-01-28T14:11:58.978Z,49.49
2023-01-28T14:14:00.301Z,49.57
2023-01-28T14:16:02.294Z,49.45
2023-01-28T14:18:03.622Z,49.09
2023-01-28T14:20:05.169Z,49.29
2023-01-28T14:22:06.509Z,48.93
2023-01-28T14:24:07.837Z,48.88
2023-01-28T14:26:09.166Z,48.82
2023-01-28T14:28:10.502Z,48.71
2023-01-28T14:30:11.809Z,49.02
2023-01-28T14:32:13.142Z,49.08
2023-01-28T14:34:14.489Z,49.13
2023-01-28T14:36:15.810Z,49.51
2023-01-28T14:38:17.230Z,49.50
2023-01-28T14:40:18.677Z,49.39
2023-01-28T14:42:20.219Z,49.49
2023-01-28T14:44:21.551Z,49.37
2023-01-28T14:46:22.875Z,49.37
2023-01-28T14:48:25.521Z,49.05
2023-01-28T14:50:26.874Z,48.86
2023-01-28T14:52:29.190Z,48.72
2023-01-28T14:54:30.531Z,48.63
2023-01-28T14:56:31.905Z,48.49
2023-01-28T14:58:33.270Z,48.12
2023-01-28T15:00:34.743Z,48.26
2023-01-28T15:02:36.079Z,47.96
2023-01-28T15:04:37.422Z,47.93
2023-01-28T15:06:38.807Z,47.88
2023-01-28T15:08:40.497Z,47.72
2023-01-28T15:10:41.866Z,47.85
2023-01-28T15:12:43.206Z,47.91
2023-01-28T15:14:44.545Z,47.57
2023-01-28T15:16:45.893Z,47.33
2023-01-28T15:18:47.234Z,47.74
2023-01-28T15:20:48.538Z,48.16
2023-01-28T15:22:49.928Z,47.68
2023-01-28T15:24:51.354Z,47.69
2023-01-28T15:26:52.689Z,47.77
2023-01-28T15:28:54.122Z,47.85
2023-01-28T15:30:55.573Z,48.07
2023-01-28T15:32:57.026Z,48.12
2023-01-28T15:34:58.314Z,48.21
2023-01-28T15:36:59.681Z,48.47
2023-01-28T15:39:00.973Z,48.54
2023-01-28T15:41:02.351Z,48.38
2023-01-28T15:43:03.716Z,48.52
2023-01-28T15:45:05.014Z,48.68
2023-01-28T15:47:06.305Z,48.80
2023-01-28T15:49:07.633Z,48.98
2023-01-28T15:51:11.714Z,48.99
2023-01-28T15:53:14.309Z,49.08
2023-01-28T15:55:18.161Z,49.09
2023-01-28T15:57:20.699Z,49.30
2023-01-28T15:59:22.210Z,49.03
2023-01-28T16:01:23.594Z,49.10
2023-01-28T16:03:25.028Z,49.19
2023-01-28T16:05:29.555Z,49.11
2023-01-28T16:07:31.053Z,49.04
2023-01-28T16:09:32.609Z,48.85
2023-01-28T16:11:33.953Z,48.73
2023-01-28T16:13:35.270Z,48.65
2023-01-28T16:15:38.375Z,49.21
2023-01-28T16:17:39.732Z,47.87
2023-01-28T16:19:41.121Z,47.66
2023-01-28T16:21:42.453Z,48.10
2023-01-28T16:23:43.778Z,47.91
2023-01-28T16:25:45.110Z,47.99
2023-01-28T16:27:46.399Z,47.32
2023-01-28T16:29:47.735Z,47.25
2023-01-28T16:31:49.175Z,47.50
2023-01-28T16:33:50.498Z,47.38
2023-01-28T16:36:06.615Z,47.46
2023-01-28T16:38:09.777Z,47.18
2023-01-28T16:40:11.076Z,47.39
2023-01-28T16:42:12.423Z,47.52
2023-01-28T16:44:13.786Z,46.65
2023-01-28T16:46:15.134Z,47.27
2023-01-28T16:48:16.454Z,47.39
2023-01-28T16:50:17.824Z,47.34
2023-01-28T16:52:19.131Z,47.93
2023-01-28T16:54:23.450Z,47.76
2023-01-28T16:56:44.050Z,47.47
2023-01-28T16:58:46.955Z,47.50
2023-01-28T17:00:48.371Z,47.99
2023-01-28T17:02:49.752Z,47.34
2023-01-28T17:04:51.045Z,48.41
2023-01-28T17:06:53.304Z,48.27
2023-01-28T17:08:55.345Z,48.69
2023-01-28T17:10:56.742Z,48.81
2023-01-28T17:12:58.898Z,49.25
2023-01-28T17:15:00.195Z,48.82
2023-01-28T17:17:01.581Z,48.60
2023-01-28T17:19:03.083Z,49.48
2023-01-28T17:21:04.424Z,49.73
2023-01-28T17:23:07.258Z,50.45
2023-01-28T17:25:08.572Z,50.02
2023-01-28T17:27:12.693Z,50.33
2023-01-28T17:29:14.068Z,49.15
2023-01-28T17:31:15.512Z,48.64
2023-01-28T17:33:17.911Z,49.39
2023-01-28T17:35:19.375Z,48.14
2023-01-28T17:37:20.805Z,48.06
2023-01-28T17:39:22.143Z,48.71
2023-01-28T17:41:23.493Z,48.12
2023-01-28T17:43:24.822Z,48.61
2023-01-28T17:45:26.159Z,48.03
2023-01-28T17:47:27.515Z,48.33
2023-01-28T17:49:28.898Z,48.31
2023-01-28T17:51:30.225Z,48.29
2023-01-28T17:53:31.518Z,47.62
2023-01-28T17:55:32.813Z,47.80
2023-01-28T17:57:34.143Z,47.08
2023-01-28T17:59:35.507Z,47.97
2023-01-28T18:01:37.297Z,47.62
2023-01-28T18:03:38.693Z,48.07
2023-01-28T18:05:40.141Z,47.47
2023-01-28T18:07:41.475Z,47.54
2023-01-28T18:09:42.860Z,47.48
2023-01-28T18:11:44.197Z,47.94
2023-01-28T18:13:45.516Z,47.48
2023-01-28T18:15:46.856Z,48.34
2023-01-28T18:17:48.233Z,48.47
2023-01-28T18:19:49.559Z,47.81
2023-01-28T18:21:53.323Z,47.36
2023-01-28T18:23:54.945Z,47.61
2023-01-28T18:25:59.364Z,48.21
2023-01-28T18:28:00.663Z,48.77
2023-01-28T18:30:02.294Z,47.97
2023-01-28T18:32:04.561Z,48.82
2023-01-28T18:34:05.856Z,49.62
2023-01-28T18:36:08.623Z,49.70
2023-01-28T18:38:09.944Z,49.69
2023-01-28T18:40:11.290Z,49.84
2023-01-28T18:42:18.737Z,49.77
2023-01-28T18:44:20.057Z,49.88
2023-01-28T18:46:24.134Z,49.79
2023-01-28T18:48:28.277Z,49.78
2023-01-28T18:50:29.570Z,49.91
2023-01-28T18:52:30.902Z,50.03
2023-01-28T18:54:32.190Z,49.74
2023-01-28T18:56:33.534Z,49.68
2023-01-28T18:58:37.875Z,49.50
2023-01-28T19:00:39.164Z,49.23
2023-01-28T19:02:40.505Z,49.09
2023-01-28T19:04:41.805Z,48.76
2023-01-28T19:06:43.167Z,48.23
2023-01-28T19:08:47.460Z,48.52
2023-01-28T19:10:54.709Z,47.86
2023-01-28T19:12:56.050Z,47.68
2023-01-28T19:14:57.406Z,47.85
2023-01-28T19:16:58.884Z,47.53
2023-01-28T19:19:00.177Z,47.20
2023-01-28T19:21:02.227Z,47.11
2023-01-28T19:23:03.567Z,47.32
2023-01-28T19:25:05.551Z,47.05
2023-01-28T19:27:06.859Z,47.50
2023-01-28T19:29:09.371Z,47.14
2023-01-28T19:31:10.765Z,47.61
2023-01-28T19:33:13.284Z,47.53
2023-01-28T19:35:15.013Z,47.14
2023-01-28T19:37:16.979Z,47.52
2023-01-28T19:39:18.474Z,47.08
2023-01-28T19:41:19.878Z,47.18
2023-01-28T19:43:22.247Z,47.46
2023-01-28T19:45:23.630Z,47.57
2023-01-28T19:47:25.306Z,47.91
2023-01-28T19:49:26.602Z,47.69
2023-01-28T19:51:27.941Z,48.00
2023-01-28T19:53:29.280Z,48.29
2023-01-28T19:55:30.574Z,48.01
2023-01-28T19:57:31.904Z,48.30
2023-01-28T19:59:33.225Z,48.39
2023-01-28T20:01:36.079Z,48.13
2023-01-28T20:03:37.455Z,48.57
2023-01-28T20:05:38.755Z,48.68
2023-01-28T20:07:40.082Z,48.82
2023-01-28T20:09:41.376Z,48.52
2023-01-28T20:11:42.677Z,48.63
2023-01-28T20:13:44.007Z,48.70
2023-01-28T20:15:45.595Z,48.59
2023-01-28T20:17:46.988Z,48.61
2023-01-28T20:19:48.935Z,48.70
2023-01-28T20:21:50.260Z,49.38
2023-01-28T20:23:51.555Z,48.68
2023-01-28T20:25:57.290Z,48.97
2023-01-28T20:28:02.244Z,48.90
2023-01-28T20:30:03.574Z,48.67
2023-01-28T20:32:16.293Z,48.78
2023-01-28T20:34:18.998Z,48.55
2023-01-28T20:36:20.293Z,48.69
2023-01-28T20:38:21.618Z,48.40
2023-01-28T20:40:23.009Z,48.23
2023-01-28T20:42:24.350Z,48.21
2023-01-28T20:44:26.749Z,48.21
2023-01-28T20:46:28.105Z,48.15
2023-01-28T20:48:29.422Z,48.45
2023-01-28T20:50:30.712Z,48.53
2023-01-28T20:52:32.249Z,49.39
2023-01-28T20:54:36.407Z,48.17
2023-01-28T20:56:37.767Z,48.53
2023-01-28T20:58:39.063Z,49.42
2023-01-28T21:00:40.353Z,49.33
2023-01-28T21:02:43.938Z,48.72
2023-01-28T21:04:45.250Z,49.13
2023-01-28T21:06:46.598Z,49.26
2023-01-28T21:08:47.970Z,48.75
2023-01-28T21:10:49.334Z,48.04
2023-01-28T21:12:50.651Z,48.67
2023-01-28T21:14:52.247Z,49.20
2023-01-28T21:16:53.701Z,49.47
2023-01-28T21:18:55.041Z,49.62
2023-01-28T21:20:56.347Z,48.99
2023-01-28T21:22:57.886Z,49.50
2023-01-28T21:24:59.238Z,49.28
2023-01-28T21:27:00.552Z,49.63
2023-01-28T21:29:01.866Z,50.04
2023-01-28T21:31:03.223Z,50.17
2023-01-28T21:33:04.538Z,50.54
2023-01-28T21:35:12.084Z,50.91
2023-01-28T21:37:16.369Z,50.25
2023-01-28T21:39:17.678Z,50.02
2023-01-28T21:41:18.995Z,49.74
2023-01-28T21:43:20.324Z,49.39
2023-01-28T21:45:21.659Z,48.88
2023-01-28T21:47:22.989Z,48.50
2023-01-28T21:49:24.324Z,48.19
2023-01-28T21:51:46.051Z,48.13
2023-01-28T21:53:47.454Z,48.57
2023-01-28T21:55:49.379Z,48.52
2023-01-28T21:58:10.701Z,48.41
2023-01-28T22:00:13.015Z,48.11
2023-01-28T22:02:14.394Z,48.47
2023-01-28T22:04:15.742Z,48.21
2023-01-28T22:06:17.083Z,49.98
2023-01-28T22:08:18.366Z,48.68
2023-01-28T22:10:19.729Z,48.75
2023-01-28T22:12:22.521Z,48.42
2023-01-28T22:14:23.865Z,48.21
2023-01-28T22:16:25.171Z,48.50
2023-01-28T22:18:26.511Z,48.36
2023-01-28T22:20:29.320Z,48.88
2023-01-28T22:22:31.825Z,48.48
2023-01-28T22:24:33.361Z,48.93
2023-01-28T22:26:37.679Z,49.33
2023-01-28T22:28:39.009Z,49.22
2023-01-28T22:30:40.310Z,50.71
2023-01-28T22:32:41.733Z,50.59
2023-01-28T22:34:44.366Z,49.90
2023-01-28T22:36:47.290Z,48.77
2023-01-28T22:38:48.787Z,49.02
2023-01-28T22:40:52.884Z,49.63
2023-01-28T22:42:54.174Z,49.93
2023-01-28T22:44:55.465Z,50.14
2023-01-28T22:46:56.966Z,50.44
2023-01-28T22:48:58.301Z,50.23
2023-01-28T22:50:59.597Z,49.55
2023-01-28T22:53:00.922Z,49.64
2023-01-28T22:55:02.248Z,50.19
2023-01-28T22:57:03.553Z,49.20
2023-01-28T22:59:04.898Z,48.86
2023-01-28T23:01:06.238Z,48.93
2023-01-28T23:03:09.839Z,49.17
2023-01-28T23:05:11.388Z,49.40
2023-01-28T23:07:12.802Z,49.61
2023-01-28T23:09:14.221Z,49.30
2023-01-28T23:11:15.559Z,49.10
2023-01-28T23:13:16.876Z,48.98
2023-01-28T23:15:36.894Z,48.68
2023-01-28T23:17:56.750Z,48.50
2023-01-28T23:20:17.196Z,48.42
2023-01-28T23:22:37.167Z,48.93
2023-01-28T23:24:38.460Z,49.01
2023-01-28T23:26:39.774Z,48.47
2023-01-28T23:28:41.190Z,48.68
2023-01-28T23:30:42.882Z,48.27
2023-01-28T23:32:44.209Z,48.46
2023-01-28T23:34:45.642Z,48.04
2023-01-28T23:36:47.227Z,48.64
2023-01-28T23:38:48.519Z,48.55
2023-01-28T23:40:49.849Z,48.46
2023-01-28T23:42:51.186Z,48.13
2023-01-28T23:44:52.485Z,48.10
2023-01-28T23:46:54.265Z,48.36
2023-01-28T23:48:55.609Z,48.17
2023-01-28T23:50:56.979Z,48.09
2023-01-28T23:52:58.461Z,49.01
2023-01-28T23:54:59.755Z,48.76
2023-01-28T23:57:02.214Z,48.62
2023-01-28T23:59:03.553Z,49.60
